Tolbukhin, Bulgaria
Current Conditions -  °F | °C
As of 1:30 AM on Sunday 26 Oct 2014 (Local Time) from LBWN Reporting Station
Moderate Rain Moderate Rain  
Wind Chill: 32°   Ceiling: 2800
Heat Index: 41°   Visibility: 4mi
Dew Point: 39°   Wind: 20mph
Humidity: 93%   Direction: 360°N
Pressure: 30.12"   Gusts: NA
Location:  43.57°N, 27.82°E
Report Text: LBWN 252230Z 36009MPS 7000 RA FEW012 BKN028 OVC043 05/04 Q1020 RERA NOSIG
Loading
Personal Weather Stations






























Interactive Weather Map
Tropical Storm Tracking
New forecast layout! Learn more

10-Day Weather Forecast

Advertisements
Track Severe Weather on mobile